CST,Max TemperatureF,Mean TemperatureF,Min TemperatureF,Max Dew PointF,MeanDew PointF,Min DewpointF,Max Humidity, Mean Humidity, Min Humidity, Max Sea Level PressureIn, Mean Sea Level PressureIn, Min Sea Level PressureIn, Max VisibilityMiles, Mean VisibilityMiles, Min VisibilityMiles, Max Wind SpeedMPH, Mean Wind SpeedMPH, Max Gust SpeedMPH,PrecipitationIn, CloudCover, Events, WindDirDegrees
2013-1-1,15,4,-7,3,-3,-13,85,72,53,30.29,30.22,30.08,10,10,9,9,2,,0.00,3,Snow,209
2013-1-2,30,16,3,28,16,0,93,86,79,30.18,30.06,30.00,10,8,3,10,7,16,0.00,5,Rain-Snow,245
2013-1-3,28,20,12,27,13,5,93,81,68,30.38,30.30,30.18,10,10,10,20,10,28,0.00,4,Snow,283
2013-1-4,30,22,15,19,15,12,86,78,60,30.26,30.18,30.12,10,10,10,13,8,16,0.00,0,Snow,209
2013-1-5,28,22,15,23,17,10,86,78,69,30.17,30.03,29.94,10,9,5,23,9,31,0.00,2,Snow,240
2013-1-6,26,17,8,21,14,7,92,79,68,30.29,30.20,30.09,10,10,7,17,8,25,0.00,1,Snow,224
2013-1-7,35,25,15,27,22,14,100,78,69,30.09,30.00,29.96,10,10,6,20,12,29,0.00,0,,205
2013-1-8,39,26,12,30,22,9,93,82,65,30.09,29.91,29.80,10,10,4,21,6,26,0.00,0,Snow,208
2013-1-9,41,30,19,32,27,18,93,81,65,30.42,30.30,30.10,10,10,7,16,5,20,0.00,0,,205
2013-1-10,41,38,35,36,29,21,100,76,49,30.33,29.98,29.68,10,7,0,21,9,26,0.00,5,Fog-Rain,152
2013-1-11,48,38,28,45,38,25,100,97,86,29.68,29.52,29.38,10,5,0,24,8,30,0.00,6,Fog,194
2013-1-12,28,18,8,25,8,0,86,68,58,30.11,29.98,29.66,10,10,7,24,17,34,0.00,7,Snow,291
2013-1-13,17,11,5,5,2,0,79,68,49,30.30,30.18,30.09,10,10,9,16,10,21,0.00,2,Rain-Snow,296
2013-1-14,26,16,5,12,6,0,85,71,51,30.43,30.35,30.31,10,10,10,9,2,12,0.00,1,Snow,224
2013-1-15,33,22,12,16,12,7,80,66,44,30.32,30.19,30.00,10,10,10,16,7,25,0.00,0,Snow,201
2013-1-16,48,36,23,34,25,16,87,73,50,30.23,29.97,29.86,10,10,9,18,12,24,0.00,3,,269
2013-1-17,37,27,17,28,16,7,100,69,51,30.44,30.36,30.24,10,9,5,10,6,12,0.00,2,,273
2013-1-18,48,39,30,32,29,27,87,71,50,30.24,29.99,29.85,10,10,7,23,14,32,0.00,0,,212
2013-1-19,50,32,14,32,24,5,87,64,47,30.31,30.01,29.81,10,10,10,26,11,39,0.00,1,,289
2013-1-20,14,10,5,9,3,0,79,70,57,30.40,30.36,30.31,10,8,1,15,9,17,0.00,4,Rain-Snow,329
2013-1-21,6,2,-2,-4,-7,-13,72,62,55,30.43,30.37,30.34,10,10,9,22,14,30,0.00,3,Snow,306
2013-1-22,15,10,5,5,0,-6,79,61,53,30.37,30.31,30.23,10,10,10,8,4,14,0.00,7,Snow,192
2013-1-23,26,14,1,14,6,-11,79,67,55,30.52,30.27,30.13,10,10,10,20,9,29,0.00,0,Snow,320
2013-1-24,17,8,0,3,-6,-11,66,52,38,30.57,30.39,30.18,10,10,10,16,10,20,0.00,3,,120
2013-1-25,41,28,14,23,14,3,86,65,49,30.28,30.15,30.07,10,10,10,17,9,24,0.00,1,Snow,287
2013-1-26,42,25,8,19,11,1,73,57,39,30.27,30.16,30.03,10,10,10,18,10,26,0.00,2,,134
2013-1-27,39,36,33,39,32,19,100,88,48,30.02,29.83,29.71,10,4,0,20,11,29,0.03,8,Fog-Rain,140
2013-1-28,42,38,33,43,37,34,100,100,93,29.87,29.75,29.55,10,1,0,13,4,18,0.01,8,Fog,104
2013-1-29,35,32,26,36,31,23,100,93,80,29.69,29.63,29.53,10,7,0,23,10,31,0.00,8,Fog-Rain,348
2013-1-30,26,18,10,23,14,3,93,76,63,29.89,29.76,29.62,10,8,1,26,20,36,0.00,8,Rain-Snow,330
2013-1-31,10,4,-4,5,-7,-13,79,64,52,30.37,30.15,29.89,10,10,3,26,14,36,0.00,3,Rain-Snow,309